Terminal Aerodrome Forecast
Issued by NWS Louisville, KY

Home | Current Version | Previous Version | Text Only | Print | Product List | Glossary On
Versions: 1 2 3 4 5 6 7 8 9 10 11 12 13
000
FTUS43 KLMK 311000 AAA
TAFLEX
TAF AMD
KLEX 311024Z 3110/0106 00000KT P6SM FEW250
     FM311500 24005KT P6SM SCT050 SCT250
     FM010300 03003KT P6SM SKC=

USA.gov is the U.S. government's official web portal to all federal, state and local government web resources and services.